Monday, February 18, 2019, 5:18 AM EST
Back to Local

KBHB, Bar Harbor, Hancock County-bar Harbor Airport

Location: Ellsworth, ME, United States Lat: 44.45
Local Time: 5:18 AM EST (10:18 GMT) Lon: -68.367
Time Zone: US/Eastern Elev: 82 ft

Show me the last for .
Show Decoded

2019-02-18 04:56 METAR KBHB 180956Z AUTO 03005KT 10SM BKN100 M10/M15 A3002 RMK AO2 SLP169
                 T11001150 FZRANO =
2019-02-18 03:56 METAR KBHB 180856Z AUTO 02008KT 10SM BKN100 M09/M15 A3004 RMK AO2 SLP177
                 T10941150 56010 FZRANO =
2019-02-18 02:56 METAR KBHB 180756Z AUTO 03004KT 10SM BKN085 M08/M14 A3004 RMK AO2 SLP177
                 T10831139 FZRANO =
2019-02-18 01:56 METAR KBHB 180656Z AUTO 02005KT 10SM BKN120 M08/M14 A3005 RMK AO2 SLP181
                 T10781139 FZRANO =
2019-02-18 00:56 METAR KBHB 180556Z AUTO 02003KT 10SM SCT110 M08/M14 A3007 RMK AO2 SLP187
                 T10781139 11044 21078 56002 FZRANO =
2019-02-17 23:56 METAR KBHB 180456Z AUTO 01003KT 10SM FEW120 M07/M13 A3008 RMK AO2 SLP190
                 T10721133 FZRANO =
2019-02-17 22:56 METAR KBHB 180356Z AUTO 00000KT 10SM CLR M07/M12 A3006 RMK AO2 SLP182 T10721122
                 FZRANO =
2019-02-17 21:56 METAR KBHB 180256Z AUTO 00000KT 8SM CLR M07/M14 A3008 RMK AO2 SLP189 T10671144
                 53003 FZRANO =
2019-02-17 20:56 METAR KBHB 180156Z AUTO 32003KT 10SM CLR M06/M14 A3008 RMK AO2 SLP190 T10611144
                 FZRANO =
2019-02-17 19:56 METAR KBHB 180056Z AUTO 35003KT 10SM CLR M05/M14 A3006 RMK AO2 SLP183 T10501139
                 FZRANO =
2019-02-17 18:56 METAR KBHB 172356Z AUTO 00000KT 10SM CLR M04/M14 A3007 RMK AO2 SLP186 T10441144
                 11022 21044 410061094 50003 FZRANO =
2019-02-17 17:56 METAR KBHB 172256Z AUTO 00000KT 10SM CLR M04/M14 A3007 RMK AO2 SLP186 T10391144
                 FZRANO =
2019-02-17 16:56 METAR KBHB 172156Z AUTO 32003KT 10SM CLR M03/M16 A3008 RMK AO2 SLP188 T10281161
                 FZRANO =
2019-02-17 15:56 METAR KBHB 172056Z AUTO 31008KT 270V340 10SM CLR M03/M16 A3006 RMK AO2 SLP183
                 T10281161 55001 FZRANO =
2019-02-17 14:56 METAR KBHB 171956Z AUTO VRB03KT 10SM CLR M02/M16 A3005 RMK AO2 SLP178 T10221161
                 FZRANO =
2019-02-17 13:56 METAR KBHB 171856Z AUTO VRB03KT 10SM CLR M03/M15 A3005 RMK AO2 SLP179 T10281150
                 FZRANO =
2019-02-17 12:56 METAR KBHB 171756Z AUTO 31005KT 10SM CLR M03/M16 A3006 RMK AO2 SLP184 T10331156
                 11033 21089 56012 FZRANO =
2019-02-17 11:56 METAR KBHB 171656Z AUTO 02008KT 330V050 10SM CLR M06/M15 A3007 RMK AO2 SLP186
                 T10561150 FZRANO =
2019-02-17 10:56 METAR KBHB 171556Z AUTO VRB04KT 10SM CLR M06/M15 A3009 RMK AO2 SLP194 T10561150
                 FZRANO =
2019-02-17 09:56 METAR KBHB 171456Z AUTO 01008KT 10SM CLR M07/M16 A3010 RMK AO2 SLP196 T10721156
                 51020 FZRANO =
2019-02-17 08:56 METAR KBHB 171356Z AUTO 32007KT 280V010 10SM CLR M08/M14 A3009 RMK AO2 SLP192
                 T10781144 FZRANO =
2019-02-17 07:56 METAR KBHB 171256Z AUTO 32008KT 290V350 10SM CLR M08/M14 A3007 RMK AO2 SLP187
                 T10831139 FZRANO =
2019-02-17 06:56 METAR KBHB 171156Z AUTO 00000KT 10SM CLR M09/M14 A3004 RMK AO2 SLP176 T10891139
                 11061 21094 53018 FZRANO =
2019-02-17 05:56 METAR KBHB 171056Z AUTO VRB05KT 10SM CLR M09/M14 A3001 RMK AO2 SLP167 T10891139
                 FZRANO =

Support USWX by starting your Amazon purchase here.